sensor_id;sensor_type;location;lat;lon;timestamp;P1;durP1;ratioP1;P2;durP2;ratioP2
67156;SDS011;54086;50.126;8.710;2023-02-28T00:01:29;7.00;;;3.05;;
67156;SDS011;54086;50.126;8.710;2023-02-28T00:03:55;7.20;;;3.33;;
67156;SDS011;54086;50.126;8.710;2023-02-28T00:06:21;7.27;;;3.30;;
67156;SDS011;54086;50.126;8.710;2023-02-28T00:08:47;8.18;;;3.47;;
67156;SDS011;54086;50.126;8.710;2023-02-28T00:11:13;7.13;;;3.13;;
67156;SDS011;54086;50.126;8.710;2023-02-28T00:13:40;7.28;;;3.25;;
67156;SDS011;54086;50.126;8.710;2023-02-28T00:16:08;8.73;;;3.70;;
67156;SDS011;54086;50.126;8.710;2023-02-28T00:18:35;7.00;;;3.53;;
67156;SDS011;54086;50.126;8.710;2023-02-28T00:21:01;7.90;;;3.88;;
67156;SDS011;54086;50.126;8.710;2023-02-28T00:23:27;8.30;;;3.73;;
67156;SDS011;54086;50.126;8.710;2023-02-28T00:25:52;7.83;;;3.60;;
67156;SDS011;54086;50.126;8.710;2023-02-28T00:28:18;8.23;;;3.50;;
67156;SDS011;54086;50.126;8.710;2023-02-28T00:30:44;8.63;;;3.93;;
67156;SDS011;54086;50.126;8.710;2023-02-28T00:33:09;7.77;;;4.00;;
67156;SDS011;54086;50.126;8.710;2023-02-28T00:35:35;11.33;;;4.10;;
67156;SDS011;54086;50.126;8.710;2023-02-28T00:38:00;8.07;;;3.50;;
67156;SDS011;54086;50.126;8.710;2023-02-28T00:40:26;7.93;;;3.38;;
67156;SDS011;54086;50.126;8.710;2023-02-28T00:42:52;7.80;;;3.67;;
67156;SDS011;54086;50.126;8.710;2023-02-28T00:45:17;8.38;;;3.90;;
67156;SDS011;54086;50.126;8.710;2023-02-28T00:47:42;9.57;;;4.20;;
67156;SDS011;54086;50.126;8.710;2023-02-28T00:50:08;7.70;;;3.97;;
67156;SDS011;54086;50.126;8.710;2023-02-28T00:52:34;8.05;;;3.70;;
67156;SDS011;54086;50.126;8.710;2023-02-28T00:55:00;8.20;;;3.87;;
67156;SDS011;54086;50.126;8.710;2023-02-28T00:57:25;8.17;;;4.10;;
67156;SDS011;54086;50.126;8.710;2023-02-28T00:59:51;8.13;;;3.95;;
67156;SDS011;54086;50.126;8.710;2023-02-28T01:02:19;8.88;;;4.10;;
67156;SDS011;54086;50.126;8.710;2023-02-28T01:04:45;8.10;;;3.90;;
67156;SDS011;54086;50.126;8.710;2023-02-28T01:07:11;8.10;;;3.75;;
67156;SDS011;54086;50.126;8.710;2023-02-28T01:09:36;8.57;;;3.93;;
67156;SDS011;54086;50.126;8.710;2023-02-28T01:12:01;7.53;;;4.10;;
67156;SDS011;54086;50.126;8.710;2023-02-28T01:14:27;8.98;;;4.10;;
67156;SDS011;54086;50.126;8.710;2023-02-28T01:16:52;7.67;;;3.60;;
67156;SDS011;54086;50.126;8.710;2023-02-28T01:19:18;9.73;;;4.70;;
67156;SDS011;54086;50.126;8.710;2023-02-28T01:21:43;9.60;;;3.87;;
67156;SDS011;54086;50.126;8.710;2023-02-28T01:24:08;8.57;;;4.20;;
67156;SDS011;54086;50.126;8.710;2023-02-28T01:26:34;7.63;;;3.73;;
67156;SDS011;54086;50.126;8.710;2023-02-28T01:28:59;7.60;;;3.75;;
67156;SDS011;54086;50.126;8.710;2023-02-28T01:31:25;8.07;;;3.93;;
67156;SDS011;54086;50.126;8.710;2023-02-28T01:33:50;7.50;;;3.70;;
67156;SDS011;54086;50.126;8.710;2023-02-28T01:36:17;8.10;;;4.27;;
67156;SDS011;54086;50.126;8.710;2023-02-28T01:38:47;8.13;;;3.80;;
67156;SDS011;54086;50.126;8.710;2023-02-28T01:41:22;9.30;;;4.43;;
67156;SDS011;54086;50.126;8.710;2023-02-28T01:46:28;8.23;;;3.75;;
67156;SDS011;54086;50.126;8.710;2023-02-28T01:48:59;9.98;;;4.00;;
67156;SDS011;54086;50.126;8.710;2023-02-28T01:51:26;8.82;;;4.20;;
67156;SDS011;54086;50.126;8.710;2023-02-28T01:53:58;11.05;;;4.57;;
67156;SDS011;54086;50.126;8.710;2023-02-28T01:56:27;8.47;;;3.60;;
67156;SDS011;54086;50.126;8.710;2023-02-28T01:58:55;7.40;;;3.60;;
67156;SDS011;54086;50.126;8.710;2023-02-28T02:01:21;10.27;;;3.95;;
67156;SDS011;54086;50.126;8.710;2023-02-28T02:03:49;8.33;;;3.53;;
67156;SDS011;54086;50.126;8.710;2023-02-28T02:06:30;10.98;;;3.90;;
67156;SDS011;54086;50.126;8.710;2023-02-28T02:08:59;8.18;;;3.97;;
67156;SDS011;54086;50.126;8.710;2023-02-28T02:11:25;8.50;;;3.50;;
67156;SDS011;54086;50.126;8.710;2023-02-28T02:33:28;8.00;;;3.40;;
67156;SDS011;54086;50.126;8.710;2023-02-28T02:41:15;8.07;;;4.13;;
67156;SDS011;54086;50.126;8.710;2023-02-28T02:44:04;8.95;;;4.53;;
67156;SDS011;54086;50.126;8.710;2023-02-28T02:46:43;8.50;;;4.07;;
67156;SDS011;54086;50.126;8.710;2023-02-28T02:49:12;7.78;;;3.28;;
67156;SDS011;54086;50.126;8.710;2023-02-28T02:51:40;8.57;;;3.33;;
67156;SDS011;54086;50.126;8.710;2023-02-28T02:54:08;7.78;;;3.50;;
67156;SDS011;54086;50.126;8.710;2023-02-28T02:56:40;7.97;;;3.58;;
67156;SDS011;54086;50.126;8.710;2023-02-28T02:59:09;9.20;;;3.63;;
67156;SDS011;54086;50.126;8.710;2023-02-28T03:01:38;7.85;;;3.80;;
67156;SDS011;54086;50.126;8.710;2023-02-28T03:04:12;8.82;;;4.35;;
67156;SDS011;54086;50.126;8.710;2023-02-28T03:06:43;7.32;;;3.58;;
67156;SDS011;54086;50.126;8.710;2023-02-28T03:09:08;8.00;;;2.90;;
67156;SDS011;54086;50.126;8.710;2023-02-28T03:11:34;8.43;;;3.37;;
67156;SDS011;54086;50.126;8.710;2023-02-28T03:20:12;7.37;;;3.30;;
67156;SDS011;54086;50.126;8.710;2023-02-28T03:25:24;8.38;;;3.90;;
67156;SDS011;54086;50.126;8.710;2023-02-28T03:31:33;8.38;;;3.35;;
67156;SDS011;54086;50.126;8.710;2023-02-28T03:36:50;8.88;;;3.75;;
67156;SDS011;54086;50.126;8.710;2023-02-28T03:39:33;9.27;;;3.80;;
67156;SDS011;54086;50.126;8.710;2023-02-28T03:42:17;8.10;;;3.47;;
67156;SDS011;54086;50.126;8.710;2023-02-28T03:44:46;7.65;;;3.60;;
67156;SDS011;54086;50.126;8.710;2023-02-28T03:47:25;6.93;;;3.20;;
67156;SDS011;54086;50.126;8.710;2023-02-28T03:49:56;7.30;;;3.25;;
67156;SDS011;54086;50.126;8.710;2023-02-28T03:52:29;7.32;;;3.70;;
67156;SDS011;54086;50.126;8.710;2023-02-28T03:54:59;6.43;;;3.17;;
67156;SDS011;54086;50.126;8.710;2023-02-28T03:57:37;8.23;;;3.72;;
67156;SDS011;54086;50.126;8.710;2023-02-28T04:00:08;6.70;;;2.90;;
67156;SDS011;54086;50.126;8.710;2023-02-28T04:02:42;7.57;;;2.95;;
67156;SDS011;54086;50.126;8.710;2023-02-28T04:05:07;7.47;;;3.27;;
67156;SDS011;54086;50.126;8.710;2023-02-28T04:07:33;8.02;;;3.08;;
67156;SDS011;54086;50.126;8.710;2023-02-28T04:09:59;8.20;;;3.30;;
67156;SDS011;54086;50.126;8.710;2023-02-28T04:12:24;9.53;;;3.23;;
67156;SDS011;54086;50.126;8.710;2023-02-28T04:14:50;7.00;;;3.17;;
67156;SDS011;54086;50.126;8.710;2023-02-28T04:17:16;9.65;;;3.60;;
67156;SDS011;54086;50.126;8.710;2023-02-28T04:19:42;6.57;;;3.03;;
67156;SDS011;54086;50.126;8.710;2023-02-28T04:22:08;8.18;;;3.17;;
67156;SDS011;54086;50.126;8.710;2023-02-28T04:24:34;8.77;;;3.30;;
67156;SDS011;54086;50.126;8.710;2023-02-28T04:27:00;7.87;;;3.97;;
67156;SDS011;54086;50.126;8.710;2023-02-28T04:29:26;8.07;;;3.60;;
67156;SDS011;54086;50.126;8.710;2023-02-28T04:31:53;7.18;;;3.20;;
67156;SDS011;54086;50.126;8.710;2023-02-28T04:34:22;9.20;;;3.47;;
67156;SDS011;54086;50.126;8.710;2023-02-28T04:36:48;8.27;;;3.30;;
67156;SDS011;54086;50.126;8.710;2023-02-28T04:39:15;8.25;;;3.20;;
67156;SDS011;54086;50.126;8.710;2023-02-28T04:41:43;8.35;;;3.08;;
67156;SDS011;54086;50.126;8.710;2023-02-28T04:44:09;7.33;;;3.10;;
67156;SDS011;54086;50.126;8.710;2023-02-28T04:46:34;8.60;;;3.67;;
67156;SDS011;54086;50.126;8.710;2023-02-28T04:48:59;6.82;;;2.95;;
67156;SDS011;54086;50.126;8.710;2023-02-28T04:51:25;8.53;;;3.70;;
67156;SDS011;54086;50.126;8.710;2023-02-28T04:53:50;8.00;;;3.37;;
67156;SDS011;54086;50.126;8.710;2023-02-28T04:56:17;6.85;;;3.00;;
67156;SDS011;54086;50.126;8.710;2023-02-28T04:58:43;7.05;;;3.08;;
67156;SDS011;54086;50.126;8.710;2023-02-28T05:01:25;7.77;;;3.10;;
67156;SDS011;54086;50.126;8.710;2023-02-28T05:03:55;7.00;;;2.95;;
67156;SDS011;54086;50.126;8.710;2023-02-28T05:06:21;11.07;;;3.83;;
67156;SDS011;54086;50.126;8.710;2023-02-28T05:08:51;6.63;;;3.20;;
67156;SDS011;54086;50.126;8.710;2023-02-28T05:13:47;7.32;;;3.13;;
67156;SDS011;54086;50.126;8.710;2023-02-28T05:16:12;7.22;;;3.20;;
67156;SDS011;54086;50.126;8.710;2023-02-28T05:18:38;10.53;;;3.77;;
67156;SDS011;54086;50.126;8.710;2023-02-28T05:21:04;15.63;;;4.45;;
67156;SDS011;54086;50.126;8.710;2023-02-28T05:23:30;10.03;;;3.17;;
67156;SDS011;54086;50.126;8.710;2023-02-28T05:25:55;7.55;;;3.10;;
67156;SDS011;54086;50.126;8.710;2023-02-28T05:28:21;6.50;;;2.77;;
67156;SDS011;54086;50.126;8.710;2023-02-28T05:30:46;8.27;;;3.23;;
67156;SDS011;54086;50.126;8.710;2023-02-28T05:33:12;8.95;;;2.70;;
67156;SDS011;54086;50.126;8.710;2023-02-28T05:35:41;9.13;;;3.00;;
67156;SDS011;54086;50.126;8.710;2023-02-28T05:38:10;7.60;;;3.07;;
67156;SDS011;54086;50.126;8.710;2023-02-28T05:40:37;8.15;;;3.10;;
67156;SDS011;54086;50.126;8.710;2023-02-28T05:43:03;9.30;;;2.80;;
67156;SDS011;54086;50.126;8.710;2023-02-28T05:45:28;7.68;;;2.53;;
67156;SDS011;54086;50.126;8.710;2023-02-28T05:47:54;6.63;;;2.57;;
67156;SDS011;54086;50.126;8.710;2023-02-28T05:50:20;7.20;;;2.92;;
67156;SDS011;54086;50.126;8.710;2023-02-28T05:52:49;8.83;;;2.70;;
67156;SDS011;54086;50.126;8.710;2023-02-28T05:55:15;7.10;;;2.83;;
67156;SDS011;54086;50.126;8.710;2023-02-28T05:57:41;5.97;;;2.63;;
67156;SDS011;54086;50.126;8.710;2023-02-28T06:00:07;7.32;;;2.88;;
67156;SDS011;54086;50.126;8.710;2023-02-28T06:02:33;6.27;;;2.47;;
67156;SDS011;54086;50.126;8.710;2023-02-28T06:04:58;6.83;;;2.70;;
67156;SDS011;54086;50.126;8.710;2023-02-28T06:07:23;7.95;;;2.80;;
67156;SDS011;54086;50.126;8.710;2023-02-28T06:09:49;7.10;;;3.00;;
67156;SDS011;54086;50.126;8.710;2023-02-28T06:12:14;8.03;;;2.90;;
67156;SDS011;54086;50.126;8.710;2023-02-28T06:14:39;10.03;;;3.30;;
67156;SDS011;54086;50.126;8.710;2023-02-28T06:17:05;6.80;;;3.10;;
67156;SDS011;54086;50.126;8.710;2023-02-28T06:19:31;7.90;;;3.20;;
67156;SDS011;54086;50.126;8.710;2023-02-28T06:21:57;9.83;;;3.03;;
67156;SDS011;54086;50.126;8.710;2023-02-28T06:24:22;7.35;;;3.08;;
67156;SDS011;54086;50.126;8.710;2023-02-28T06:26:49;8.73;;;3.37;;
67156;SDS011;54086;50.126;8.710;2023-02-28T06:29:15;9.65;;;3.20;;
67156;SDS011;54086;50.126;8.710;2023-02-28T06:31:44;9.23;;;3.60;;
67156;SDS011;54086;50.126;8.710;2023-02-28T06:34:10;11.10;;;4.10;;
67156;SDS011;54086;50.126;8.710;2023-02-28T06:36:39;8.55;;;3.40;;
67156;SDS011;54086;50.126;8.710;2023-02-28T06:39:06;8.60;;;3.80;;
67156;SDS011;54086;50.126;8.710;2023-02-28T06:41:32;8.20;;;3.20;;
67156;SDS011;54086;50.126;8.710;2023-02-28T06:44:02;8.52;;;3.30;;
67156;SDS011;54086;50.126;8.710;2023-02-28T06:46:36;13.30;;;4.00;;
67156;SDS011;54086;50.126;8.710;2023-02-28T06:49:02;7.97;;;3.40;;
67156;SDS011;54086;50.126;8.710;2023-02-28T06:51:28;9.98;;;3.92;;
67156;SDS011;54086;50.126;8.710;2023-02-28T06:53:54;8.33;;;3.30;;
67156;SDS011;54086;50.126;8.710;2023-02-28T06:56:19;9.10;;;3.93;;
67156;SDS011;54086;50.126;8.710;2023-02-28T06:58:46;7.55;;;3.50;;
67156;SDS011;54086;50.126;8.710;2023-02-28T07:01:13;11.10;;;3.50;;
67156;SDS011;54086;50.126;8.710;2023-02-28T07:03:39;9.70;;;3.23;;
67156;SDS011;54086;50.126;8.710;2023-02-28T07:06:05;8.67;;;3.60;;
67156;SDS011;54086;50.126;8.710;2023-02-28T07:08:30;7.55;;;2.88;;
67156;SDS011;54086;50.126;8.710;2023-02-28T07:10:56;9.32;;;3.72;;
67156;SDS011;54086;50.126;8.710;2023-02-28T07:13:23;9.13;;;3.17;;
67156;SDS011;54086;50.126;8.710;2023-02-28T07:18:30;9.50;;;3.25;;
67156;SDS011;54086;50.126;8.710;2023-02-28T07:20:56;8.75;;;3.78;;
67156;SDS011;54086;50.126;8.710;2023-02-28T07:23:22;9.47;;;4.00;;
67156;SDS011;54086;50.126;8.710;2023-02-28T07:25:47;7.20;;;3.38;;
67156;SDS011;54086;50.126;8.710;2023-02-28T07:28:13;7.72;;;3.63;;
67156;SDS011;54086;50.126;8.710;2023-02-28T07:30:39;8.30;;;3.30;;
67156;SDS011;54086;50.126;8.710;2023-02-28T07:33:05;8.33;;;3.97;;
67156;SDS011;54086;50.126;8.710;2023-02-28T07:35:30;8.73;;;3.17;;
67156;SDS011;54086;50.126;8.710;2023-02-28T07:37:57;8.53;;;3.40;;
67156;SDS011;54086;50.126;8.710;2023-02-28T07:40:23;10.80;;;3.53;;
67156;SDS011;54086;50.126;8.710;2023-02-28T07:42:49;6.63;;;3.00;;
67156;SDS011;54086;50.126;8.710;2023-02-28T07:45:15;8.23;;;3.73;;
67156;SDS011;54086;50.126;8.710;2023-02-28T07:47:41;8.93;;;4.73;;
67156;SDS011;54086;50.126;8.710;2023-02-28T07:50:08;8.80;;;3.60;;
67156;SDS011;54086;50.126;8.710;2023-02-28T07:52:34;8.23;;;3.63;;
67156;SDS011;54086;50.126;8.710;2023-02-28T07:55:01;8.45;;;3.72;;
67156;SDS011;54086;50.126;8.710;2023-02-28T07:57:27;8.97;;;4.00;;
67156;SDS011;54086;50.126;8.710;2023-02-28T07:59:52;10.90;;;4.17;;
67156;SDS011;54086;50.126;8.710;2023-02-28T08:02:17;10.03;;;3.70;;
67156;SDS011;54086;50.126;8.710;2023-02-28T08:04:44;9.13;;;3.75;;
67156;SDS011;54086;50.126;8.710;2023-02-28T08:07:10;8.60;;;3.72;;
67156;SDS011;54086;50.126;8.710;2023-02-28T08:09:38;7.30;;;3.30;;
67156;SDS011;54086;50.126;8.710;2023-02-28T08:12:07;9.05;;;4.13;;
67156;SDS011;54086;50.126;8.710;2023-02-28T08:14:34;8.57;;;3.73;;
67156;SDS011;54086;50.126;8.710;2023-02-28T08:16:59;11.43;;;4.00;;
67156;SDS011;54086;50.126;8.710;2023-02-28T08:19:25;8.17;;;3.43;;
67156;SDS011;54086;50.126;8.710;2023-02-28T08:21:50;9.20;;;3.30;;
67156;SDS011;54086;50.126;8.710;2023-02-28T08:24:15;8.02;;;3.67;;
67156;SDS011;54086;50.126;8.710;2023-02-28T08:26:41;6.80;;;3.07;;
67156;SDS011;54086;50.126;8.710;2023-02-28T08:29:06;11.17;;;3.77;;
67156;SDS011;54086;50.126;8.710;2023-02-28T08:31:32;9.97;;;3.97;;
67156;SDS011;54086;50.126;8.710;2023-02-28T08:33:57;7.47;;;2.73;;
67156;SDS011;54086;50.126;8.710;2023-02-28T08:36:24;8.43;;;3.70;;
67156;SDS011;54086;50.126;8.710;2023-02-28T08:38:50;7.78;;;3.15;;
67156;SDS011;54086;50.126;8.710;2023-02-28T08:41:16;6.83;;;3.03;;
67156;SDS011;54086;50.126;8.710;2023-02-28T08:43:41;7.30;;;3.30;;
67156;SDS011;54086;50.126;8.710;2023-02-28T08:46:07;8.75;;;3.03;;
67156;SDS011;54086;50.126;8.710;2023-02-28T08:48:35;7.47;;;3.30;;
67156;SDS011;54086;50.126;8.710;2023-02-28T08:51:09;7.32;;;3.22;;
67156;SDS011;54086;50.126;8.710;2023-02-28T08:53:37;12.63;;;4.18;;
67156;SDS011;54086;50.126;8.710;2023-02-28T08:56:05;7.90;;;3.60;;
67156;SDS011;54086;50.126;8.710;2023-02-28T08:58:33;8.13;;;3.38;;
67156;SDS011;54086;50.126;8.710;2023-02-28T09:00:59;9.23;;;3.90;;
67156;SDS011;54086;50.126;8.710;2023-02-28T09:03:25;7.53;;;3.40;;
67156;SDS011;54086;50.126;8.710;2023-02-28T09:05:59;7.95;;;3.25;;
67156;SDS011;54086;50.126;8.710;2023-02-28T09:08:26;8.35;;;3.28;;
67156;SDS011;54086;50.126;8.710;2023-02-28T09:10:53;9.57;;;3.47;;
67156;SDS011;54086;50.126;8.710;2023-02-28T09:13:19;8.43;;;3.22;;
67156;SDS011;54086;50.126;8.710;2023-02-28T09:15:45;8.27;;;3.60;;
67156;SDS011;54086;50.126;8.710;2023-02-28T09:18:11;7.50;;;3.33;;
67156;SDS011;54086;50.126;8.710;2023-02-28T09:20:37;11.10;;;3.95;;
67156;SDS011;54086;50.126;8.710;2023-02-28T09:23:04;7.70;;;3.80;;
67156;SDS011;54086;50.126;8.710;2023-02-28T09:25:30;7.78;;;3.58;;
67156;SDS011;54086;50.126;8.710;2023-02-28T09:27:56;8.37;;;3.50;;
67156;SDS011;54086;50.126;8.710;2023-02-28T09:30:21;7.63;;;3.33;;
67156;SDS011;54086;50.126;8.710;2023-02-28T09:32:46;9.23;;;3.87;;
67156;SDS011;54086;50.126;8.710;2023-02-28T09:35:17;8.93;;;3.70;;
67156;SDS011;54086;50.126;8.710;2023-02-28T09:37:43;7.88;;;3.42;;
67156;SDS011;54086;50.126;8.710;2023-02-28T09:40:09;6.90;;;3.43;;
67156;SDS011;54086;50.126;8.710;2023-02-28T09:42:35;7.72;;;3.25;;
67156;SDS011;54086;50.126;8.710;2023-02-28T09:45:02;7.50;;;3.27;;
67156;SDS011;54086;50.126;8.710;2023-02-28T09:47:36;7.72;;;3.40;;
67156;SDS011;54086;50.126;8.710;2023-02-28T09:50:28;8.57;;;3.50;;
67156;SDS011;54086;50.126;8.710;2023-02-28T09:52:58;9.75;;;3.60;;
67156;SDS011;54086;50.126;8.710;2023-02-28T09:55:32;9.50;;;4.07;;
67156;SDS011;54086;50.126;8.710;2023-02-28T09:58:19;7.45;;;3.45;;
67156;SDS011;54086;50.126;8.710;2023-02-28T10:00:56;8.80;;;3.90;;
67156;SDS011;54086;50.126;8.710;2023-02-28T10:03:40;8.35;;;3.40;;
67156;SDS011;54086;50.126;8.710;2023-02-28T10:06:13;7.93;;;3.88;;
67156;SDS011;54086;50.126;8.710;2023-02-28T10:08:56;7.53;;;3.50;;
67156;SDS011;54086;50.126;8.710;2023-02-28T10:11:26;10.43;;;3.60;;
67156;SDS011;54086;50.126;8.710;2023-02-28T10:13:54;8.48;;;4.00;;
67156;SDS011;54086;50.126;8.710;2023-02-28T10:16:31;7.07;;;3.00;;
67156;SDS011;54086;50.126;8.710;2023-02-28T10:24:53;9.15;;;3.85;;
67156;SDS011;54086;50.126;8.710;2023-02-28T10:27:22;10.07;;;4.38;;
67156;SDS011;54086;50.126;8.710;2023-02-28T10:29:53;7.25;;;3.42;;
67156;SDS011;54086;50.126;8.710;2023-02-28T10:32:25;9.35;;;3.38;;
67156;SDS011;54086;50.126;8.710;2023-02-28T10:35:00;7.73;;;3.47;;
67156;SDS011;54086;50.126;8.710;2023-02-28T10:37:26;7.97;;;3.58;;
67156;SDS011;54086;50.126;8.710;2023-02-28T10:39:52;6.82;;;2.97;;
67156;SDS011;54086;50.126;8.710;2023-02-28T10:42:27;9.00;;;3.57;;
67156;SDS011;54086;50.126;8.710;2023-02-28T10:47:38;9.65;;;3.53;;
67156;SDS011;54086;50.126;8.710;2023-02-28T10:50:27;9.00;;;3.30;;
67156;SDS011;54086;50.126;8.710;2023-02-28T10:52:54;8.95;;;3.50;;
67156;SDS011;54086;50.126;8.710;2023-02-28T10:55:29;8.43;;;3.10;;
67156;SDS011;54086;50.126;8.710;2023-02-28T10:57:54;7.85;;;3.13;;
67156;SDS011;54086;50.126;8.710;2023-02-28T11:00:22;7.53;;;3.17;;
67156;SDS011;54086;50.126;8.710;2023-02-28T11:02:50;6.53;;;3.05;;
67156;SDS011;54086;50.126;8.710;2023-02-28T11:05:31;8.10;;;3.20;;
67156;SDS011;54086;50.126;8.710;2023-02-28T11:08:18;7.90;;;3.42;;
67156;SDS011;54086;50.126;8.710;2023-02-28T11:10:47;9.13;;;3.45;;
67156;SDS011;54086;50.126;8.710;2023-02-28T11:13:29;7.57;;;3.08;;
67156;SDS011;54086;50.126;8.710;2023-02-28T11:16:00;8.63;;;3.95;;
67156;SDS011;54086;50.126;8.710;2023-02-28T11:18:49;8.87;;;3.67;;
67156;SDS011;54086;50.126;8.710;2023-02-28T11:21:18;8.48;;;3.95;;
67156;SDS011;54086;50.126;8.710;2023-02-28T11:23:44;9.63;;;3.90;;
67156;SDS011;54086;50.126;8.710;2023-02-28T11:26:10;7.88;;;3.45;;
67156;SDS011;54086;50.126;8.710;2023-02-28T11:28:39;9.00;;;3.70;;
67156;SDS011;54086;50.126;8.710;2023-02-28T11:38:41;12.02;;;3.70;;
67156;SDS011;54086;50.126;8.710;2023-02-28T11:41:11;9.10;;;3.87;;
67156;SDS011;54086;50.126;8.710;2023-02-28T11:46:52;9.30;;;3.43;;
67156;SDS011;54086;50.126;8.710;2023-02-28T11:49:35;8.85;;;3.70;;
67156;SDS011;54086;50.126;8.710;2023-02-28T11:52:19;9.45;;;4.50;;
67156;SDS011;54086;50.126;8.710;2023-02-28T11:55:30;9.38;;;4.13;;
67156;SDS011;54086;50.126;8.710;2023-02-28T12:11:18;9.02;;;4.07;;
67156;SDS011;54086;50.126;8.710;2023-02-28T12:14:02;9.20;;;4.47;;
67156;SDS011;54086;50.126;8.710;2023-02-28T12:16:47;8.20;;;4.55;;
67156;SDS011;54086;50.126;8.710;2023-02-28T12:19:31;8.95;;;4.20;;
67156;SDS011;54086;50.126;8.710;2023-02-28T12:27:36;9.03;;;4.17;;
67156;SDS011;54086;50.126;8.710;2023-02-28T12:30:04;9.45;;;4.20;;
67156;SDS011;54086;50.126;8.710;2023-02-28T12:32:44;9.38;;;4.30;;
67156;SDS011;54086;50.126;8.710;2023-02-28T12:35:14;10.27;;;4.70;;
67156;SDS011;54086;50.126;8.710;2023-02-28T12:37:44;10.70;;;4.70;;
67156;SDS011;54086;50.126;8.710;2023-02-28T12:40:34;9.83;;;4.90;;
67156;SDS011;54086;50.126;8.710;2023-02-28T12:43:22;8.70;;;4.45;;
67156;SDS011;54086;50.126;8.710;2023-02-28T12:45:55;9.13;;;4.80;;
67156;SDS011;54086;50.126;8.710;2023-02-28T12:48:25;12.65;;;4.90;;
67156;SDS011;54086;50.126;8.710;2023-02-28T12:51:05;9.55;;;4.70;;
67156;SDS011;54086;50.126;8.710;2023-02-28T12:53:35;11.23;;;4.50;;
67156;SDS011;54086;50.126;8.710;2023-02-28T12:56:20;9.20;;;4.78;;
67156;SDS011;54086;50.126;8.710;2023-02-28T13:02:21;15.45;;;9.93;;
67156;SDS011;54086;50.126;8.710;2023-02-28T13:10:00;9.88;;;4.13;;
67156;SDS011;54086;50.126;8.710;2023-02-28T13:12:27;9.70;;;4.80;;
67156;SDS011;54086;50.126;8.710;2023-02-28T13:17:48;8.27;;;4.45;;
67156;SDS011;54086;50.126;8.710;2023-02-28T13:20:19;11.37;;;4.90;;
67156;SDS011;54086;50.126;8.710;2023-02-28T13:22:47;11.55;;;5.10;;
67156;SDS011;54086;50.126;8.710;2023-02-28T13:27:58;9.00;;;4.78;;
67156;SDS011;54086;50.126;8.710;2023-02-28T13:38:44;10.02;;;4.80;;
67156;SDS011;54086;50.126;8.710;2023-02-28T13:41:40;10.60;;;4.72;;
67156;SDS011;54086;50.126;8.710;2023-02-28T13:51:46;9.67;;;4.70;;
67156;SDS011;54086;50.126;8.710;2023-02-28T13:59:48;8.88;;;4.45;;
67156;SDS011;54086;50.126;8.710;2023-02-28T14:05:15;9.63;;;4.47;;
67156;SDS011;54086;50.126;8.710;2023-02-28T14:07:44;9.10;;;4.63;;
67156;SDS011;54086;50.126;8.710;2023-02-28T14:10:41;9.15;;;4.60;;
67156;SDS011;54086;50.126;8.710;2023-02-28T14:15:56;9.32;;;4.85;;
67156;SDS011;54086;50.126;8.710;2023-02-28T14:18:36;11.20;;;5.07;;
67156;SDS011;54086;50.126;8.710;2023-02-28T14:26:02;11.93;;;5.13;;
67156;SDS011;54086;50.126;8.710;2023-02-28T14:31:37;11.15;;;5.13;;
67156;SDS011;54086;50.126;8.710;2023-02-28T14:36:37;11.93;;;5.63;;
67156;SDS011;54086;50.126;8.710;2023-02-28T14:39:14;11.27;;;5.65;;
67156;SDS011;54086;50.126;8.710;2023-02-28T14:41:44;12.65;;;5.43;;
67156;SDS011;54086;50.126;8.710;2023-02-28T14:44:14;10.63;;;4.85;;
67156;SDS011;54086;50.126;8.710;2023-02-28T14:46:43;10.27;;;5.27;;
67156;SDS011;54086;50.126;8.710;2023-02-28T14:49:31;9.52;;;4.68;;
67156;SDS011;54086;50.126;8.710;2023-02-28T14:52:19;9.98;;;4.38;;
67156;SDS011;54086;50.126;8.710;2023-02-28T14:54:51;9.90;;;4.85;;
67156;SDS011;54086;50.126;8.710;2023-02-28T14:57:29;9.93;;;4.93;;
67156;SDS011;54086;50.126;8.710;2023-02-28T15:00:21;9.87;;;4.70;;
67156;SDS011;54086;50.126;8.710;2023-02-28T15:02:49;10.75;;;4.93;;
67156;SDS011;54086;50.126;8.710;2023-02-28T15:07:41;11.53;;;4.97;;
67156;SDS011;54086;50.126;8.710;2023-02-28T15:10:18;10.38;;;4.90;;
67156;SDS011;54086;50.126;8.710;2023-02-28T15:15:50;10.88;;;5.10;;
67156;SDS011;54086;50.126;8.710;2023-02-28T15:21:07;11.52;;;5.18;;
67156;SDS011;54086;50.126;8.710;2023-02-28T15:23:36;11.82;;;5.15;;
67156;SDS011;54086;50.126;8.710;2023-02-28T15:26:03;11.03;;;4.93;;
67156;SDS011;54086;50.126;8.710;2023-02-28T15:28:30;10.43;;;4.80;;
67156;SDS011;54086;50.126;8.710;2023-02-28T15:30:57;11.18;;;4.80;;
67156;SDS011;54086;50.126;8.710;2023-02-28T15:33:26;10.00;;;4.90;;
67156;SDS011;54086;50.126;8.710;2023-02-28T15:36:54;10.82;;;4.90;;
67156;SDS011;54086;50.126;8.710;2023-02-28T15:38:54;10.63;;;5.68;;
67156;SDS011;54086;50.126;8.710;2023-02-28T15:41:30;9.13;;;4.47;;
67156;SDS011;54086;50.126;8.710;2023-02-28T15:49:40;10.45;;;5.07;;
67156;SDS011;54086;50.126;8.710;2023-02-28T15:52:27;14.57;;;6.25;;
67156;SDS011;54086;50.126;8.710;2023-02-28T15:54:53;12.02;;;6.53;;
67156;SDS011;54086;50.126;8.710;2023-02-28T15:57:23;12.27;;;6.03;;
67156;SDS011;54086;50.126;8.710;2023-02-28T15:59:54;10.70;;;5.65;;
67156;SDS011;54086;50.126;8.710;2023-02-28T16:02:39;12.10;;;6.10;;
67156;SDS011;54086;50.126;8.710;2023-02-28T16:07:34;11.05;;;5.50;;
67156;SDS011;54086;50.126;8.710;2023-02-28T16:10:06;12.55;;;5.63;;
67156;SDS011;54086;50.126;8.710;2023-02-28T16:12:33;11.20;;;5.85;;
67156;SDS011;54086;50.126;8.710;2023-02-28T16:15:01;11.07;;;5.17;;
67156;SDS011;54086;50.126;8.710;2023-02-28T16:17:33;12.50;;;5.50;;
67156;SDS011;54086;50.126;8.710;2023-02-28T16:20:00;10.32;;;5.80;;
67156;SDS011;54086;50.126;8.710;2023-02-28T16:22:26;12.73;;;5.30;;
67156;SDS011;54086;50.126;8.710;2023-02-28T16:24:52;11.00;;;5.43;;
67156;SDS011;54086;50.126;8.710;2023-02-28T16:27:28;12.23;;;5.60;;
67156;SDS011;54086;50.126;8.710;2023-02-28T16:30:00;17.73;;;8.93;;
67156;SDS011;54086;50.126;8.710;2023-02-28T16:32:28;10.77;;;5.30;;
67156;SDS011;54086;50.126;8.710;2023-02-28T16:34:54;12.57;;;5.57;;
67156;SDS011;54086;50.126;8.710;2023-02-28T16:37:19;11.50;;;5.83;;
67156;SDS011;54086;50.126;8.710;2023-02-28T16:39:45;14.77;;;6.90;;
67156;SDS011;54086;50.126;8.710;2023-02-28T16:42:21;12.50;;;5.93;;
67156;SDS011;54086;50.126;8.710;2023-02-28T16:44:49;12.65;;;5.43;;
67156;SDS011;54086;50.126;8.710;2023-02-28T16:47:15;12.45;;;5.55;;
67156;SDS011;54086;50.126;8.710;2023-02-28T16:49:40;10.07;;;4.90;;
67156;SDS011;54086;50.126;8.710;2023-02-28T16:52:08;11.40;;;5.40;;
67156;SDS011;54086;50.126;8.710;2023-02-28T16:54:34;11.00;;;5.38;;
67156;SDS011;54086;50.126;8.710;2023-02-28T16:56:59;12.73;;;5.47;;
67156;SDS011;54086;50.126;8.710;2023-02-28T16:59:25;11.37;;;5.90;;
67156;SDS011;54086;50.126;8.710;2023-02-28T17:01:52;11.80;;;5.50;;
67156;SDS011;54086;50.126;8.710;2023-02-28T17:04:19;11.63;;;5.32;;
67156;SDS011;54086;50.126;8.710;2023-02-28T17:06:45;10.83;;;5.53;;
67156;SDS011;54086;50.126;8.710;2023-02-28T17:09:20;10.20;;;5.27;;
67156;SDS011;54086;50.126;8.710;2023-02-28T17:11:47;13.03;;;5.53;;
67156;SDS011;54086;50.126;8.710;2023-02-28T17:14:14;13.32;;;5.22;;
67156;SDS011;54086;50.126;8.710;2023-02-28T17:16:40;10.75;;;5.30;;
67156;SDS011;54086;50.126;8.710;2023-02-28T17:19:09;11.43;;;5.30;;
67156;SDS011;54086;50.126;8.710;2023-02-28T17:21:43;9.90;;;4.55;;
67156;SDS011;54086;50.126;8.710;2023-02-28T17:24:09;11.07;;;5.40;;
67156;SDS011;54086;50.126;8.710;2023-02-28T17:26:37;13.05;;;5.05;;
67156;SDS011;54086;50.126;8.710;2023-02-28T17:29:05;12.60;;;6.70;;
67156;SDS011;54086;50.126;8.710;2023-02-28T17:31:41;14.20;;;4.95;;